createdAt,value
2022-12-08T00:01:41.709Z,16.52
2022-12-08T00:05:02.580Z,15.00
2022-12-08T00:08:23.522Z,14.75
2022-12-08T00:11:25.596Z,13.15
2022-12-08T00:14:33.157Z,12.18
2022-12-08T00:17:35.174Z,12.98
2022-12-08T00:20:37.005Z,13.25
2022-12-08T00:23:38.779Z,13.63
2022-12-08T00:26:40.569Z,11.63
2022-12-08T00:29:45.732Z,13.18
2022-12-08T00:32:47.792Z,13.50
2022-12-08T00:35:49.997Z,12.65
2022-12-08T00:38:52.068Z,9.30
2022-12-08T00:42:12.299Z,11.27
2022-12-08T00:45:14.548Z,12.18
2022-12-08T00:48:16.395Z,12.23
2022-12-08T00:51:18.287Z,11.32
2022-12-08T00:54:20.096Z,11.50
2022-12-08T00:57:21.902Z,9.63
2022-12-08T01:00:24.000Z,13.40
2022-12-08T01:03:25.916Z,11.40
2022-12-08T01:06:27.705Z,10.38
2022-12-08T01:09:29.483Z,12.05
2022-12-08T01:12:31.400Z,10.05
2022-12-08T01:15:33.433Z,11.35
2022-12-08T01:18:35.963Z,13.10
2022-12-08T01:21:37.974Z,11.27
2022-12-08T01:24:39.790Z,12.40
2022-12-08T01:27:41.596Z,14.98
2022-12-08T01:30:43.778Z,14.93
2022-12-08T01:33:46.084Z,17.20
2022-12-08T01:36:48.143Z,14.07
2022-12-08T01:39:50.160Z,19.40
2022-12-08T01:42:52.674Z,17.42
2022-12-08T01:45:54.493Z,19.00
2022-12-08T01:49:02.032Z,19.65
2022-12-08T01:52:07.384Z,22.50
2022-12-08T01:55:20.306Z,23.38
2022-12-08T01:58:31.702Z,19.60
2022-12-08T02:01:33.884Z,23.17
2022-12-08T02:04:35.912Z,25.85
2022-12-08T02:07:38.179Z,22.95
2022-12-08T02:10:55.411Z,22.02
2022-12-08T02:13:58.910Z,24.00
2022-12-08T02:17:00.707Z,26.38
2022-12-08T02:20:18.005Z,25.55
2022-12-08T02:23:32.987Z,29.55
2022-12-08T02:27:03.889Z,30.88
2022-12-08T02:30:06.197Z,31.10
2022-12-08T02:33:36.063Z,30.03
2022-12-08T02:36:43.803Z,29.42
2022-12-08T02:39:58.138Z,25.73
2022-12-08T02:43:05.964Z,29.08
2022-12-08T02:46:17.026Z,30.45
2022-12-08T02:49:19.101Z,28.85
2022-12-08T02:52:21.036Z,33.72
2022-12-08T02:55:32.016Z,28.90
2022-12-08T02:58:43.695Z,30.67
2022-12-08T03:02:35.975Z,34.55
2022-12-08T03:06:09.299Z,31.02
2022-12-08T03:09:37.304Z,32.60
2022-12-08T03:12:45.646Z,34.45
2022-12-08T03:15:50.285Z,35.08
2022-12-08T03:19:17.976Z,35.17
2022-12-08T03:22:24.725Z,30.85
2022-12-08T03:25:30.940Z,30.05
2022-12-08T03:28:32.999Z,32.83
2022-12-08T03:31:41.238Z,34.33
2022-12-08T03:34:46.127Z,31.33
2022-12-08T03:37:48.114Z,31.23
2022-12-08T03:41:09.883Z,31.63
2022-12-08T03:44:11.844Z,32.95
2022-12-08T03:47:13.813Z,34.13
2022-12-08T03:50:16.069Z,30.08
2022-12-08T03:53:17.911Z,31.17
2022-12-08T03:56:23.702Z,31.10
2022-12-08T03:59:25.960Z,32.35
2022-12-08T04:02:27.919Z,31.13
2022-12-08T04:05:30.086Z,34.97
2022-12-08T04:08:32.122Z,29.77
2022-12-08T04:11:33.872Z,31.00
2022-12-08T04:14:35.674Z,29.35
2022-12-08T04:17:37.678Z,30.88
2022-12-08T04:20:41.435Z,26.15
2022-12-08T04:23:43.967Z,28.42
2022-12-08T04:26:46.010Z,35.30
2022-12-08T04:29:48.035Z,28.42
2022-12-08T04:32:49.836Z,34.55
2022-12-08T04:35:51.597Z,29.02
2022-12-08T04:38:54.000Z,28.50
2022-12-08T04:41:56.175Z,20.13
2022-12-08T04:44:57.968Z,32.17
2022-12-08T04:48:01.010Z,31.15
2022-12-08T04:51:02.761Z,31.63
2022-12-08T04:54:04.757Z,29.02
2022-12-08T04:57:06.591Z,25.40
2022-12-08T05:00:08.982Z,31.85
2022-12-08T05:03:10.940Z,30.00
2022-12-08T05:06:14.570Z,31.45
2022-12-08T05:09:16.529Z,27.27
2022-12-08T05:12:18.246Z,29.30
2022-12-08T05:15:20.268Z,29.77
2022-12-08T05:18:22.030Z,28.30
2022-12-08T05:21:23.781Z,27.05
2022-12-08T05:24:25.719Z,23.58
2022-12-08T05:27:28.026Z,26.65
2022-12-08T05:30:29.769Z,26.17
2022-12-08T05:33:31.563Z,28.20
2022-12-08T05:36:33.622Z,24.75
2022-12-08T05:39:35.683Z,26.85
2022-12-08T05:42:44.247Z,24.17
2022-12-08T05:46:06.395Z,26.63
2022-12-08T05:49:08.763Z,28.20
2022-12-08T05:52:10.833Z,27.65
2022-12-08T05:55:12.566Z,25.73
2022-12-08T05:58:20.314Z,22.85
2022-12-08T06:01:25.145Z,24.10
2022-12-08T06:04:27.026Z,24.17
2022-12-08T06:07:28.787Z,23.10
2022-12-08T06:10:30.631Z,25.25
2022-12-08T06:13:32.544Z,22.83
2022-12-08T06:16:34.345Z,24.70
2022-12-08T06:19:36.294Z,19.95
2022-12-08T06:22:38.553Z,21.63
2022-12-08T06:25:40.622Z,21.00
2022-12-08T06:28:43.369Z,22.52
2022-12-08T06:31:45.418Z,21.67
2022-12-08T06:34:47.285Z,23.35
2022-12-08T06:37:49.075Z,26.77
2022-12-08T06:40:58.158Z,21.73
2022-12-08T06:44:00.111Z,24.13
2022-12-08T06:47:01.929Z,21.38
2022-12-08T06:50:05.711Z,19.60
2022-12-08T06:53:08.001Z,23.13
2022-12-08T06:56:30.174Z,19.77
2022-12-08T06:59:32.782Z,20.73
2022-12-08T07:02:34.560Z,21.40
2022-12-08T07:05:37.563Z,19.38
2022-12-08T07:08:39.566Z,23.27
2022-12-08T07:11:41.364Z,23.70
2022-12-08T07:14:43.078Z,20.55
2022-12-08T07:17:44.982Z,20.88
2022-12-08T07:20:47.092Z,22.25
2022-12-08T07:23:57.104Z,21.85
2022-12-08T07:26:59.493Z,25.60
2022-12-08T07:30:01.658Z,27.65
2022-12-08T07:33:05.709Z,26.55
2022-12-08T07:36:08.622Z,24.15
2022-12-08T07:39:10.446Z,27.80
2022-12-08T07:42:12.299Z,26.38
2022-12-08T07:45:14.269Z,29.45
2022-12-08T07:48:17.102Z,25.80
2022-12-08T07:51:19.754Z,26.00
2022-12-08T07:54:21.712Z,29.45
2022-12-08T07:57:23.495Z,26.60
2022-12-08T08:00:26.257Z,27.60
2022-12-08T08:03:28.204Z,23.02
2022-12-08T08:06:31.378Z,25.98
2022-12-08T08:09:34.103Z,24.55
2022-12-08T08:12:36.972Z,28.60
2022-12-08T08:15:39.213Z,22.45
2022-12-08T08:18:41.224Z,22.65
2022-12-08T08:21:45.882Z,24.40
2022-12-08T08:24:47.979Z,22.83
2022-12-08T08:29:07.185Z,29.45
2022-12-08T08:32:09.144Z,23.15
2022-12-08T08:35:11.383Z,23.25
2022-12-08T08:38:13.493Z,24.75
2022-12-08T08:41:15.522Z,27.88
2022-12-08T08:44:17.672Z,23.55
2022-12-08T08:47:19.612Z,28.92
2022-12-08T08:50:21.448Z,32.00
2022-12-08T08:53:23.888Z,25.92
2022-12-08T08:56:26.145Z,24.60
2022-12-08T08:59:29.086Z,27.33
2022-12-08T09:02:31.579Z,34.10
2022-12-08T09:05:33.526Z,29.23
2022-12-08T09:08:35.469Z,24.45
2022-12-08T09:11:37.602Z,32.65
2022-12-08T09:14:39.925Z,36.58
2022-12-08T09:17:41.803Z,27.63
2022-12-08T09:21:20.455Z,28.50
2022-12-08T09:24:23.194Z,25.38
2022-12-08T09:27:25.040Z,22.73
2022-12-08T09:30:26.878Z,24.60
2022-12-08T09:33:28.860Z,26.50
2022-12-08T09:36:36.990Z,28.45
2022-12-08T09:39:41.429Z,25.98
2022-12-08T09:43:10.344Z,26.50
2022-12-08T09:46:17.610Z,25.77
2022-12-08T09:49:23.798Z,23.80
2022-12-08T09:52:33.674Z,30.65
2022-12-08T09:55:52.146Z,20.00
2022-12-08T09:59:21.246Z,20.98
2022-12-08T10:02:29.261Z,22.60
2022-12-08T10:05:37.872Z,20.92
2022-12-08T10:09:11.117Z,19.60
2022-12-08T10:12:26.140Z,19.38
2022-12-08T10:15:40.318Z,27.40
2022-12-08T10:18:42.648Z,20.50
2022-12-08T10:21:45.558Z,17.98
2022-12-08T10:25:11.528Z,19.65
2022-12-08T10:28:13.848Z,18.95
2022-12-08T10:31:18.062Z,20.80
2022-12-08T10:34:26.016Z,20.27
2022-12-08T10:37:27.827Z,16.85
2022-12-08T10:40:40.598Z,16.70
2022-12-08T10:43:53.504Z,20.45
2022-12-08T10:46:55.845Z,18.52
2022-12-08T10:50:07.378Z,20.20
2022-12-08T10:53:09.380Z,16.70
2022-12-08T10:56:18.343Z,19.98
2022-12-08T10:59:20.993Z,19.85
2022-12-08T11:02:23.379Z,26.60
2022-12-08T11:05:36.984Z,21.13
2022-12-08T11:11:58.935Z,16.70
2022-12-08T11:15:03.521Z,20.20
2022-12-08T11:18:23.016Z,20.13
2022-12-08T11:21:36.953Z,21.05
2022-12-08T11:24:38.983Z,19.25
2022-12-08T11:27:44.374Z,17.88
2022-12-08T11:30:50.474Z,20.65
2022-12-08T11:33:53.143Z,18.58
2022-12-08T11:36:56.584Z,17.67
2022-12-08T11:43:22.796Z,21.40
2022-12-08T11:46:32.424Z,19.75
2022-12-08T11:49:39.856Z,24.17
2022-12-08T11:52:48.170Z,19.42
2022-12-08T11:55:55.170Z,19.52
2022-12-08T11:59:06.672Z,14.85
2022-12-08T12:02:16.165Z,20.50
2022-12-08T12:06:08.744Z,18.95
2022-12-08T12:09:13.067Z,17.58
2022-12-08T12:12:49.925Z,14.85
2022-12-08T12:16:39.974Z,16.38
2022-12-08T12:19:42.109Z,14.23
2022-12-08T12:22:47.759Z,18.98
2022-12-08T12:25:59.897Z,11.45
2022-12-08T12:29:32.909Z,15.20
2022-12-08T12:32:45.530Z,15.27
2022-12-08T12:35:48.629Z,14.73
2022-12-08T12:39:01.349Z,15.07
2022-12-08T12:42:05.267Z,13.57
2022-12-08T12:45:20.100Z,18.10
2022-12-08T12:48:25.221Z,13.23
2022-12-08T12:51:47.607Z,15.00
2022-12-08T12:54:52.925Z,18.42
2022-12-08T12:57:58.467Z,16.70
2022-12-08T13:01:13.291Z,11.05
2022-12-08T13:04:16.407Z,15.05
2022-12-08T13:07:24.954Z,14.50
2022-12-08T13:10:38.796Z,10.00
2022-12-08T13:14:04.050Z,19.73
2022-12-08T13:17:12.398Z,13.80
2022-12-08T13:20:22.600Z,9.48
2022-12-08T13:23:36.676Z,12.18
2022-12-08T13:27:04.123Z,11.13
2022-12-08T13:30:46.093Z,9.85
2022-12-08T13:33:48.140Z,10.38
2022-12-08T13:36:57.295Z,9.05
2022-12-08T13:40:05.743Z,11.60
2022-12-08T13:43:47.397Z,10.55
2022-12-08T13:57:40.944Z,10.85
2022-12-08T14:00:43.321Z,13.32
2022-12-08T14:03:58.294Z,11.02
2022-12-08T14:07:08.874Z,13.35
2022-12-08T14:10:30.934Z,11.63
2022-12-08T14:13:34.389Z,14.32
2022-12-08T14:19:42.562Z,11.57
2022-12-08T14:22:44.641Z,12.60
2022-12-08T14:25:48.406Z,13.68
2022-12-08T14:28:50.258Z,13.10
2022-12-08T14:31:53.740Z,10.88
2022-12-08T14:34:59.436Z,14.85
2022-12-08T14:38:03.823Z,11.75
2022-12-08T14:41:08.759Z,12.65
2022-12-08T14:44:33.225Z,9.85
2022-12-08T14:47:35.067Z,13.85
2022-12-08T14:50:45.148Z,13.20
2022-12-08T14:53:55.619Z,14.93
2022-12-08T14:56:58.243Z,14.70
2022-12-08T15:00:08.622Z,11.70
2022-12-08T15:03:13.393Z,11.57
2022-12-08T15:06:15.961Z,13.10
2022-12-08T15:09:36.833Z,12.87
2022-12-08T15:12:38.707Z,10.30
2022-12-08T15:15:52.430Z,9.80
2022-12-08T15:19:29.672Z,11.68
2022-12-08T15:22:31.776Z,10.65
2022-12-08T15:25:35.106Z,9.52
2022-12-08T15:31:38.926Z,9.23
2022-12-08T15:34:40.699Z,11.13
2022-12-08T15:37:42.818Z,11.60
2022-12-08T15:40:44.735Z,10.05
2022-12-08T15:43:46.573Z,13.05
2022-12-08T15:46:50.026Z,12.10
2022-12-08T15:49:53.097Z,13.02
2022-12-08T15:52:54.909Z,12.95
2022-12-08T15:56:26.277Z,11.88
2022-12-08T15:59:22.608Z,14.48
2022-12-08T16:02:25.525Z,12.93
2022-12-08T16:05:44.779Z,10.60
2022-12-08T16:08:56.176Z,13.23
2022-12-08T16:13:40.229Z,12.25
2022-12-08T16:16:02.681Z,11.77
2022-12-08T16:19:04.571Z,12.63
2022-12-08T16:25:46.201Z,13.27
2022-12-08T16:29:21.048Z,12.77
2022-12-08T16:32:23.393Z,12.63
2022-12-08T16:35:25.393Z,12.57
2022-12-08T16:38:27.252Z,9.95
2022-12-08T16:41:48.029Z,9.75
2022-12-08T16:44:49.936Z,12.93
2022-12-08T16:47:59.821Z,11.98
2022-12-08T16:51:04.453Z,10.93
2022-12-08T16:54:06.355Z,14.85
2022-12-08T16:57:08.116Z,12.70
2022-12-08T17:00:14.862Z,9.43
2022-12-08T17:03:17.232Z,10.50
2022-12-08T17:06:19.492Z,10.95
2022-12-08T17:09:21.503Z,15.18
2022-12-08T17:12:23.320Z,10.13
2022-12-08T17:15:25.774Z,14.02
2022-12-08T17:18:27.634Z,9.43
2022-12-08T17:21:29.409Z,10.57
2022-12-08T17:24:31.699Z,10.70
2022-12-08T17:27:33.846Z,14.02
2022-12-08T17:30:35.660Z,8.30
2022-12-08T17:33:37.454Z,15.93
2022-12-08T17:36:39.336Z,15.27
2022-12-08T17:39:41.159Z,12.05
2022-12-08T17:42:43.183Z,15.35
2022-12-08T17:45:47.748Z,11.65
2022-12-08T17:48:49.999Z,12.98
2022-12-08T17:51:54.982Z,12.57
2022-12-08T17:54:56.806Z,10.18
2022-12-08T17:57:59.979Z,13.13
2022-12-08T18:01:08.528Z,13.88
2022-12-08T18:04:11.554Z,13.43
2022-12-08T18:07:13.535Z,16.15
2022-12-08T18:10:16.351Z,16.35
2022-12-08T18:13:18.459Z,12.35
2022-12-08T18:16:23.265Z,13.77
2022-12-08T18:19:26.295Z,12.60
2022-12-08T18:22:28.417Z,16.38
2022-12-08T18:25:30.297Z,11.73
2022-12-08T18:28:32.473Z,13.55
2022-12-08T18:31:34.471Z,10.70
2022-12-08T18:34:36.339Z,13.32
2022-12-08T18:37:38.468Z,15.32
2022-12-08T18:40:40.291Z,13.57
2022-12-08T18:43:42.414Z,14.98
2022-12-08T18:46:44.272Z,13.10
2022-12-08T18:49:46.143Z,15.13
2022-12-08T18:52:47.954Z,14.13
2022-12-08T18:55:51.030Z,12.85
2022-12-08T18:58:58.442Z,16.75
2022-12-08T19:02:03.481Z,14.40
2022-12-08T19:05:06.488Z,13.73
2022-12-08T19:08:08.470Z,14.55
2022-12-08T19:11:21.123Z,12.30
2022-12-08T19:14:27.855Z,13.45
2022-12-08T19:20:40.769Z,14.68
2022-12-08T19:23:43.776Z,19.48
2022-12-08T19:26:45.946Z,12.73
2022-12-08T19:29:47.766Z,16.45
2022-12-08T19:32:50.562Z,12.98
2022-12-08T19:35:52.968Z,16.75
2022-12-08T19:39:14.777Z,12.67
2022-12-08T19:42:37.539Z,14.60
2022-12-08T19:45:39.497Z,16.45
2022-12-08T19:48:41.334Z,16.65
2022-12-08T19:51:43.673Z,19.42
2022-12-08T19:54:45.860Z,16.98
2022-12-08T19:57:47.773Z,17.15
2022-12-08T20:00:49.885Z,21.77
2022-12-08T20:03:51.801Z,19.63
2022-12-08T20:06:54.811Z,22.55
2022-12-08T20:09:57.043Z,21.42
2022-12-08T20:13:17.739Z,20.35
2022-12-08T20:16:19.861Z,17.80
2022-12-08T20:19:21.789Z,19.02
2022-12-08T20:22:23.706Z,18.67
2022-12-08T20:25:25.843Z,24.75
2022-12-08T20:28:27.608Z,21.90
2022-12-08T20:31:30.798Z,26.25
2022-12-08T20:34:33.658Z,26.55
2022-12-08T20:37:35.535Z,21.38
2022-12-08T20:40:41.030Z,21.20
2022-12-08T20:43:47.387Z,24.55
2022-12-08T20:46:49.846Z,19.45
2022-12-08T20:49:51.837Z,22.70
2022-12-08T20:52:53.804Z,23.55
2022-12-08T20:55:56.265Z,22.73
2022-12-08T20:58:58.673Z,24.40
2022-12-08T21:02:00.929Z,26.47
2022-12-08T21:05:03.113Z,23.25
2022-12-08T21:08:06.905Z,23.73
2022-12-08T21:11:09.746Z,25.48
2022-12-08T21:14:11.671Z,26.52
2022-12-08T21:17:13.659Z,25.80
2022-12-08T21:20:16.358Z,29.35
2022-12-08T21:23:18.632Z,23.42
2022-12-08T21:26:25.911Z,24.45
2022-12-08T21:29:28.020Z,25.83
2022-12-08T21:32:30.748Z,26.58
2022-12-08T21:35:33.187Z,21.25
2022-12-08T21:38:40.118Z,23.23
2022-12-08T21:42:00.609Z,23.55
2022-12-08T21:45:02.870Z,31.33
2022-12-08T21:48:10.819Z,23.95
2022-12-08T21:51:13.299Z,26.95
2022-12-08T21:54:18.943Z,28.10
2022-12-08T21:57:21.545Z,27.95
2022-12-08T22:00:23.918Z,24.92
2022-12-08T22:03:28.122Z,27.85
2022-12-08T22:06:30.444Z,22.55
2022-12-08T22:09:32.408Z,26.27
2022-12-08T22:12:35.781Z,23.60
2022-12-08T22:18:39.711Z,27.50
2022-12-08T22:21:43.220Z,25.92
2022-12-08T22:24:45.159Z,27.73
2022-12-08T22:27:47.078Z,24.25
2022-12-08T22:30:49.217Z,24.50
2022-12-08T22:33:54.170Z,24.75
2022-12-08T22:36:56.329Z,24.10
2022-12-08T22:39:58.340Z,25.35
2022-12-08T22:43:00.740Z,25.35
2022-12-08T22:46:11.865Z,24.53
2022-12-08T22:49:14.377Z,25.60
2022-12-08T22:52:16.154Z,30.98
2022-12-08T22:55:18.223Z,24.75
2022-12-08T22:58:20.391Z,25.50
2022-12-08T23:01:25.487Z,24.90
2022-12-08T23:04:27.609Z,25.77
2022-12-08T23:07:29.617Z,28.10
2022-12-08T23:10:32.522Z,30.45
2022-12-08T23:13:34.585Z,21.13
2022-12-08T23:16:36.977Z,26.17
2022-12-08T23:19:39.158Z,25.13
2022-12-08T23:22:41.044Z,23.58
2022-12-08T23:25:43.817Z,22.85
2022-12-08T23:28:46.142Z,26.52
2022-12-08T23:31:48.809Z,25.45
2022-12-08T23:34:50.762Z,24.98
2022-12-08T23:37:53.715Z,26.42
2022-12-08T23:41:01.059Z,23.05
2022-12-08T23:44:02.958Z,24.30
2022-12-08T23:47:05.065Z,24.77
2022-12-08T23:50:08.276Z,24.52
2022-12-08T23:53:10.524Z,26.98
2022-12-08T23:56:14.983Z,24.35
2022-12-08T23:59:17.230Z,28.17
